createdAt,value
2024-04-08T00:01:21.396Z,98691.31
2024-04-08T00:03:48.247Z,98688.91
2024-04-08T00:06:15.070Z,98692.75
2024-04-08T00:08:41.868Z,98689.63
2024-04-08T00:11:08.974Z,98700.47
2024-04-08T00:13:38.799Z,98695.72
2024-04-08T00:16:08.740Z,98699.34
2024-04-08T00:18:35.495Z,98696.06
2024-04-08T00:21:04.158Z,98698.00
2024-04-08T00:23:31.128Z,98700.00
2024-04-08T00:25:57.945Z,98690.63
2024-04-08T00:28:24.630Z,98697.53
2024-04-08T00:30:51.351Z,98696.09
2024-04-08T00:33:18.106Z,98700.00
2024-04-08T00:35:44.950Z,98703.38
2024-04-08T00:38:11.679Z,98694.88
2024-04-08T00:40:39.145Z,98695.78
2024-04-08T00:43:08.746Z,98705.22
2024-04-08T00:45:40.051Z,98701.09
2024-04-08T00:48:08.425Z,98696.81
2024-04-08T00:50:37.180Z,98694.09
2024-04-08T00:53:04.138Z,98690.72
2024-04-08T00:55:33.644Z,98695.13
2024-04-08T00:58:00.634Z,98692.75
2024-04-08T01:00:27.352Z,98693.53
2024-04-08T01:02:55.899Z,98694.38
2024-04-08T01:05:22.816Z,98694.97
2024-04-08T01:07:49.905Z,98701.00
2024-04-08T01:10:18.618Z,98699.44
2024-04-08T01:12:45.379Z,98696.31
2024-04-08T01:15:12.250Z,98701.28
2024-04-08T01:17:39.102Z,98702.31
2024-04-08T01:20:06.358Z,98698.84
2024-04-08T01:22:34.453Z,98697.00
2024-04-08T01:25:01.444Z,98695.25
2024-04-08T01:27:28.273Z,98699.53
2024-04-08T01:29:54.992Z,98698.56
2024-04-08T01:32:22.028Z,98693.34
2024-04-08T01:34:48.786Z,98685.50
2024-04-08T01:37:15.563Z,98689.16
2024-04-08T01:39:42.403Z,98693.41
2024-04-08T01:42:09.173Z,98689.78
2024-04-08T01:44:36.081Z,98688.00
2024-04-08T01:47:02.845Z,98682.88
2024-04-08T01:49:29.715Z,98678.41
2024-04-08T01:51:56.477Z,98674.16
2024-04-08T01:54:23.374Z,98678.72
2024-04-08T01:56:50.202Z,98674.59
2024-04-08T01:59:17.012Z,98675.88
2024-04-08T02:01:43.715Z,98674.38
2024-04-08T02:04:10.413Z,98668.31
2024-04-08T02:06:37.239Z,98672.78
2024-04-08T02:09:04.283Z,98664.28
2024-04-08T02:11:31.011Z,98661.84
2024-04-08T02:13:57.775Z,98664.63
2024-04-08T02:16:24.561Z,98660.41
2024-04-08T02:18:52.269Z,98662.22
2024-04-08T02:21:19.015Z,98659.59
2024-04-08T02:23:46.372Z,98657.13
2024-04-08T02:26:13.234Z,98650.22
2024-04-08T02:28:39.968Z,98647.69
2024-04-08T02:31:06.688Z,98643.47
2024-04-08T02:33:33.529Z,98635.63
2024-04-08T02:36:05.508Z,98636.47
2024-04-08T02:38:34.229Z,98632.94
2024-04-08T02:41:01.681Z,98629.56
2024-04-08T02:43:28.481Z,98634.13
2024-04-08T02:45:55.503Z,98631.53
2024-04-08T02:48:22.319Z,98627.06
2024-04-08T02:50:49.349Z,98627.22
2024-04-08T02:53:16.100Z,98625.91
2024-04-08T02:55:42.800Z,98624.97
2024-04-08T02:58:09.631Z,98626.63
2024-04-08T03:01:15.234Z,98630.94
2024-04-08T03:03:42.572Z,98630.09
2024-04-08T03:06:12.785Z,98626.47
2024-04-08T03:08:41.413Z,98620.41
2024-04-08T03:11:09.001Z,98617.97
2024-04-08T03:13:40.429Z,98616.53
2024-04-08T03:16:07.560Z,98614.97
2024-04-08T03:18:34.296Z,98614.09
2024-04-08T03:21:05.043Z,98615.03
2024-04-08T03:23:32.199Z,98615.28
2024-04-08T03:26:07.951Z,98611.09
2024-04-08T03:28:34.969Z,98610.41
2024-04-08T03:31:09.653Z,98619.19
2024-04-08T03:33:36.388Z,98625.59
2024-04-08T03:36:09.794Z,98617.84
2024-04-08T03:38:36.871Z,98620.88
2024-04-08T03:41:05.914Z,98610.97
2024-04-08T03:43:33.758Z,98616.47
2024-04-08T03:46:01.313Z,98611.34
2024-04-08T03:48:28.152Z,98618.50
2024-04-08T03:50:54.902Z,98612.53
2024-04-08T03:53:21.715Z,98617.00
2024-04-08T03:55:48.402Z,98617.34
2024-04-08T03:58:15.252Z,98617.41
2024-04-08T04:00:42.005Z,98626.25
2024-04-08T04:03:11.003Z,98617.75
2024-04-08T04:05:37.967Z,98630.13
2024-04-08T04:08:05.057Z,98628.63
2024-04-08T04:10:31.850Z,98624.31
2024-04-08T04:12:58.529Z,98628.75
2024-04-08T04:15:25.283Z,98621.00
2024-04-08T04:17:52.105Z,98618.47
2024-04-08T04:20:25.891Z,98617.56
2024-04-08T04:22:52.604Z,98615.78
2024-04-08T04:25:19.489Z,98607.97
2024-04-08T04:27:46.272Z,98616.72
2024-04-08T04:30:13.073Z,98611.25
2024-04-08T04:32:41.563Z,98625.25
2024-04-08T04:35:08.384Z,98624.56
2024-04-08T04:37:35.079Z,98619.34
2024-04-08T04:40:02.070Z,98625.56
2024-04-08T04:42:28.822Z,98623.69
2024-04-08T04:44:55.702Z,98629.53
2024-04-08T04:47:22.432Z,98626.69
2024-04-08T04:49:49.163Z,98639.47
2024-04-08T04:52:16.025Z,98629.63
2024-04-08T04:54:42.875Z,98627.44
2024-04-08T04:57:09.619Z,98642.69
2024-04-08T04:59:36.343Z,98637.16
2024-04-08T05:02:03.159Z,98638.25
2024-04-08T05:04:29.891Z,98635.28
2024-04-08T05:06:56.578Z,98635.88
2024-04-08T05:09:23.273Z,98635.38
2024-04-08T05:11:50.030Z,98636.69
2024-04-08T05:14:17.101Z,98640.81
2024-04-08T05:16:44.522Z,98641.22
2024-04-08T05:19:11.251Z,98641.72
2024-04-08T05:21:38.115Z,98638.81
2024-04-08T05:24:05.172Z,98635.97
2024-04-08T05:26:31.892Z,98638.31
2024-04-08T05:28:58.571Z,98640.53
2024-04-08T05:31:25.267Z,98639.44
2024-04-08T05:33:52.248Z,98645.34
2024-04-08T05:36:19.034Z,98640.78
2024-04-08T05:38:45.840Z,98636.28
2024-04-08T05:41:12.661Z,98638.72
2024-04-08T05:43:39.363Z,98645.63
2024-04-08T05:46:06.076Z,98638.53
2024-04-08T05:48:32.828Z,98637.53
2024-04-08T05:50:59.664Z,98634.63
2024-04-08T05:53:26.421Z,98637.66
2024-04-08T05:55:53.160Z,98636.44
2024-04-08T05:58:19.865Z,98640.47
2024-04-08T06:00:47.028Z,98637.47
2024-04-08T06:03:13.755Z,98644.13
2024-04-08T06:05:42.514Z,98638.50
2024-04-08T06:08:09.344Z,98633.81
2024-04-08T06:10:38.188Z,98631.47
2024-04-08T06:13:05.137Z,98645.06
2024-04-08T06:15:33.336Z,98633.13
2024-04-08T06:18:00.507Z,98640.63
2024-04-08T06:20:28.564Z,98634.78
2024-04-08T06:22:55.669Z,98627.31
2024-04-08T06:25:22.448Z,98630.31
2024-04-08T06:27:49.150Z,98634.84
2024-04-08T06:30:15.870Z,98636.03
2024-04-08T06:32:42.662Z,98639.84
2024-04-08T06:35:09.364Z,98649.81
2024-04-08T06:37:36.079Z,98641.34
2024-04-08T06:40:02.862Z,98645.16
2024-04-08T06:42:29.617Z,98634.88
2024-04-08T06:44:56.410Z,98640.34
2024-04-08T06:47:25.681Z,98648.47
2024-04-08T06:49:52.425Z,98643.34
2024-04-08T06:52:19.156Z,98633.91
2024-04-08T06:54:45.976Z,98640.91
2024-04-08T06:57:12.792Z,98649.03
2024-04-08T06:59:39.783Z,98645.63
2024-04-08T07:02:06.879Z,98643.09
2024-04-08T07:04:34.089Z,98649.50
2024-04-08T07:07:00.856Z,98643.59
2024-04-08T07:09:28.706Z,98637.81
2024-04-08T07:11:59.065Z,98645.91
2024-04-08T07:14:26.636Z,98641.75
2024-04-08T07:16:53.454Z,98646.34
2024-04-08T07:19:20.303Z,98650.91
2024-04-08T07:21:47.005Z,98650.25
2024-04-08T07:24:14.702Z,98649.69
2024-04-08T07:26:41.433Z,98656.31
2024-04-08T07:29:08.346Z,98644.72
2024-04-08T07:31:35.043Z,98645.00
2024-04-08T07:34:01.796Z,98651.81
2024-04-08T07:36:28.507Z,98654.94
2024-04-08T07:39:01.520Z,98661.81
2024-04-08T07:41:29.750Z,98654.50
2024-04-08T07:43:56.504Z,98655.94
2024-04-08T07:46:23.186Z,98657.03
2024-04-08T07:48:49.932Z,98672.81
2024-04-08T07:51:16.710Z,98660.97
2024-04-08T07:53:43.448Z,98653.56
2024-04-08T07:56:10.234Z,98654.19
2024-04-08T07:58:37.348Z,98658.97
2024-04-08T08:01:05.125Z,98656.03
2024-04-08T08:03:32.895Z,98653.88
2024-04-08T08:06:01.376Z,98654.25
2024-04-08T08:08:29.204Z,98651.97
2024-04-08T08:11:04.543Z,98648.63
2024-04-08T08:13:32.256Z,98649.81
2024-04-08T08:16:00.010Z,98651.16
2024-04-08T08:18:27.891Z,98647.91
2024-04-08T08:20:55.818Z,98651.78
2024-04-08T08:23:22.533Z,98656.31
2024-04-08T08:25:50.004Z,98653.09
2024-04-08T08:28:17.152Z,98644.56
2024-04-08T08:30:43.921Z,98639.63
2024-04-08T08:33:10.804Z,98638.06
2024-04-08T08:35:37.651Z,98638.28
2024-04-08T08:38:04.459Z,98639.47
2024-04-08T08:40:33.846Z,98639.94
2024-04-08T08:43:00.609Z,98632.47
2024-04-08T08:45:28.674Z,98640.13
2024-04-08T08:47:56.003Z,98633.66
2024-04-08T08:50:24.764Z,98637.75
2024-04-08T08:52:51.952Z,98626.81
2024-04-08T08:55:20.804Z,98635.19
2024-04-08T08:57:48.393Z,98622.47
2024-04-08T09:00:18.202Z,98635.41
2024-04-08T09:02:46.397Z,98619.19
2024-04-08T09:05:13.198Z,98619.75
2024-04-08T09:07:40.000Z,98615.06
2024-04-08T09:10:07.152Z,98613.97
2024-04-08T09:12:33.929Z,98620.66
2024-04-08T09:15:00.793Z,98617.75
2024-04-08T09:17:27.587Z,98615.00
2024-04-08T09:19:54.631Z,98611.28
2024-04-08T09:22:21.378Z,98605.59
2024-04-08T09:24:48.102Z,98612.28
2024-04-08T09:27:15.068Z,98604.94
2024-04-08T09:29:41.977Z,98602.16
2024-04-08T09:32:11.985Z,98603.59
2024-04-08T09:34:38.687Z,98595.41
2024-04-08T09:37:09.904Z,98593.34
2024-04-08T09:39:41.647Z,98591.41
2024-04-08T09:42:13.444Z,98595.59
2024-04-08T09:44:44.872Z,98592.69
2024-04-08T09:47:14.318Z,98583.41
2024-04-08T09:49:48.109Z,98578.13
2024-04-08T09:52:17.867Z,98575.09
2024-04-08T09:54:44.705Z,98581.22
2024-04-08T09:57:16.559Z,98579.16
2024-04-08T09:59:43.915Z,98567.59
2024-04-08T10:02:16.949Z,98565.66
2024-04-08T10:04:44.160Z,98556.75
2024-04-08T10:07:13.039Z,98560.94
2024-04-08T10:09:40.342Z,98558.16
2024-04-08T10:12:08.890Z,98559.84
2024-04-08T10:14:36.131Z,98543.03
2024-04-08T10:17:02.969Z,98546.38
2024-04-08T10:19:29.842Z,98536.47
2024-04-08T10:22:03.648Z,98527.59
2024-04-08T10:24:39.214Z,98515.22
2024-04-08T10:27:09.468Z,98512.19
2024-04-08T10:29:39.439Z,98514.81
2024-04-08T10:32:08.082Z,98512.03
2024-04-08T10:34:36.095Z,98509.25
2024-04-08T10:37:02.812Z,98503.84
2024-04-08T10:39:30.116Z,98498.41
2024-04-08T10:42:12.579Z,98495.75
2024-04-08T10:44:39.423Z,98499.13
2024-04-08T10:47:09.822Z,98495.47
2024-04-08T10:49:37.203Z,98483.97
2024-04-08T10:52:04.374Z,98497.03
2024-04-08T10:54:32.665Z,98495.09
2024-04-08T10:57:00.005Z,98484.63
2024-04-08T10:59:27.083Z,98487.03
2024-04-08T11:01:54.777Z,98485.91
2024-04-08T11:04:23.031Z,98479.50
2024-04-08T11:06:49.869Z,98477.53
2024-04-08T11:09:17.209Z,98472.25
2024-04-08T11:11:44.161Z,98472.97
2024-04-08T11:14:10.898Z,98469.22
2024-04-08T11:16:38.122Z,98467.38
2024-04-08T11:19:04.920Z,98463.78
2024-04-08T11:21:31.964Z,98452.09
2024-04-08T11:23:58.817Z,98451.94
2024-04-08T11:26:31.939Z,98445.44
2024-04-08T11:29:02.662Z,98440.84
2024-04-08T11:31:29.409Z,98438.22
2024-04-08T11:33:56.137Z,98438.22
2024-04-08T11:36:22.875Z,98438.78
2024-04-08T11:38:50.031Z,98436.78
2024-04-08T11:41:16.812Z,98435.69
2024-04-08T11:43:45.837Z,98432.06
2024-04-08T11:46:13.726Z,98421.47
2024-04-08T11:48:42.986Z,98427.31
2024-04-08T11:51:09.867Z,98409.50
2024-04-08T11:53:36.603Z,98400.75
2024-04-08T11:56:03.779Z,98411.03
2024-04-08T11:58:30.462Z,98412.41
2024-04-08T12:00:57.266Z,98390.28
2024-04-08T12:03:24.281Z,98396.25
2024-04-08T12:05:51.160Z,98399.59
2024-04-08T12:08:17.947Z,98392.38
2024-04-08T12:10:44.895Z,98385.09
2024-04-08T12:13:19.875Z,98390.13
2024-04-08T12:15:48.406Z,98384.81
2024-04-08T12:18:15.465Z,98374.91
2024-04-08T12:20:42.386Z,98367.66
2024-04-08T12:23:13.123Z,98371.16
2024-04-08T12:25:40.437Z,98367.38
2024-04-08T12:28:09.922Z,98358.47
2024-04-08T12:30:37.192Z,98360.28
2024-04-08T12:33:04.695Z,98359.16
2024-04-08T12:35:31.620Z,98363.31
2024-04-08T12:37:58.393Z,98354.53
2024-04-08T12:40:25.266Z,98348.94
2024-04-08T12:42:52.198Z,98345.34
2024-04-08T12:45:19.117Z,98371.66
2024-04-08T12:47:46.289Z,98353.97
2024-04-08T12:50:13.154Z,98354.78
2024-04-08T12:52:40.167Z,98341.41
2024-04-08T12:55:07.675Z,98357.97
2024-04-08T12:57:34.494Z,98343.78
2024-04-08T13:00:01.480Z,98338.34
2024-04-08T13:02:29.633Z,98330.25
2024-04-08T13:04:56.688Z,98318.69
2024-04-08T13:07:23.700Z,98336.25
2024-04-08T13:09:52.703Z,98323.81
2024-04-08T13:12:19.721Z,98329.81
2024-04-08T13:14:46.689Z,98326.19
2024-04-08T13:17:14.095Z,98328.00
2024-04-08T13:19:43.244Z,98321.75
2024-04-08T13:22:11.734Z,98310.19
2024-04-08T13:24:38.485Z,98304.75
2024-04-08T13:27:05.556Z,58593.88
2024-04-08T13:29:32.735Z,58593.88
2024-04-08T13:31:59.479Z,58593.88
2024-04-08T13:34:26.488Z,58593.88
2024-04-08T13:36:53.486Z,58593.88
2024-04-08T13:39:20.357Z,58593.88
2024-04-08T13:41:49.011Z,58593.88
2024-04-08T13:44:15.834Z,58593.88
2024-04-08T13:46:43.592Z,58593.88
2024-04-08T13:49:10.514Z,58593.88
2024-04-08T13:51:37.398Z,58593.88
2024-04-08T13:54:05.794Z,58593.88
2024-04-08T13:56:34.496Z,58593.88
2024-04-08T13:59:01.882Z,58593.88
2024-04-08T14:01:28.894Z,58593.88
2024-04-08T14:04:00.036Z,58593.88
2024-04-08T14:06:27.415Z,58593.88
2024-04-08T14:08:54.351Z,58593.88
2024-04-08T14:11:21.453Z,58593.88
2024-04-08T14:13:48.375Z,58593.88
2024-04-08T14:16:15.181Z,58593.88
2024-04-08T14:18:42.243Z,58593.88
2024-04-08T14:21:10.808Z,58593.88
2024-04-08T14:23:37.804Z,58593.88
2024-04-08T14:26:04.683Z,58593.88
2024-04-08T14:28:31.920Z,58593.88
2024-04-08T14:30:59.105Z,58593.88
2024-04-08T14:33:26.191Z,58593.88
2024-04-08T14:35:53.343Z,58593.88
2024-04-08T14:38:39.631Z,58593.88
2024-04-08T14:41:09.498Z,58593.88
2024-04-08T14:43:43.917Z,58593.88
2024-04-08T14:46:18.342Z,58593.88
2024-04-08T14:48:45.652Z,58593.88
2024-04-08T14:51:14.189Z,58593.88
2024-04-08T14:53:44.392Z,58593.88
2024-04-08T14:56:13.032Z,58593.88
2024-04-08T14:58:45.452Z,58593.88
2024-04-08T15:01:14.446Z,58593.88
2024-04-08T15:03:41.870Z,58593.88
2024-04-08T15:06:09.010Z,58593.88
2024-04-08T15:08:37.716Z,58593.88
2024-04-08T15:11:05.418Z,58593.88
2024-04-08T15:13:32.234Z,58593.88
2024-04-08T15:15:59.062Z,58593.88
2024-04-08T15:18:26.815Z,58593.88
2024-04-08T15:20:54.132Z,58593.88
2024-04-08T15:23:21.847Z,58593.88
2024-04-08T15:25:48.732Z,58593.88
2024-04-08T15:28:15.499Z,58593.88
2024-04-08T15:30:43.268Z,58593.88
2024-04-08T15:33:10.445Z,58593.88
2024-04-08T15:35:37.311Z,58593.88
2024-04-08T15:38:04.568Z,58593.88
2024-04-08T15:40:33.855Z,58593.88
2024-04-08T15:43:00.717Z,58593.88
2024-04-08T15:45:27.789Z,58593.88
2024-04-08T15:47:55.109Z,58593.88
2024-04-08T15:50:22.036Z,58593.88
2024-04-08T15:52:48.906Z,58593.88
2024-04-08T15:55:18.118Z,58593.88
2024-04-08T15:57:44.957Z,58593.88
2024-04-08T16:00:13.761Z,58593.88
2024-04-08T16:02:40.676Z,58593.88
2024-04-08T16:05:07.778Z,58593.88
2024-04-08T16:07:35.833Z,58593.88
2024-04-08T16:10:02.698Z,58593.88
2024-04-08T16:12:32.174Z,58593.88
2024-04-08T16:15:01.331Z,58593.88
2024-04-08T16:17:28.503Z,58593.88
2024-04-08T16:19:55.273Z,58593.88
2024-04-08T16:22:27.457Z,58593.88
2024-04-08T16:24:57.877Z,58593.88
2024-04-08T16:27:26.396Z,58593.88
2024-04-08T16:29:53.529Z,58593.88
2024-04-08T16:32:20.513Z,58593.88
2024-04-08T16:34:47.372Z,58593.88
2024-04-08T16:37:14.144Z,58593.88
2024-04-08T16:39:40.919Z,58593.88
2024-04-08T16:42:08.168Z,58593.88
2024-04-08T16:44:35.010Z,58593.88
2024-04-08T16:47:01.890Z,58593.88
2024-04-08T16:49:33.942Z,58593.88
2024-04-08T16:52:01.019Z,58593.88
2024-04-08T16:54:30.320Z,58593.88
2024-04-08T16:56:57.228Z,58593.88
2024-04-08T16:59:24.020Z,58593.88
2024-04-08T17:01:52.795Z,58593.88
2024-04-08T17:04:19.708Z,58593.88
2024-04-08T17:06:52.346Z,58593.88
2024-04-08T17:09:26.239Z,58593.88
2024-04-08T17:11:54.044Z,58593.88
2024-04-08T17:14:20.894Z,58593.88
2024-04-08T17:16:49.733Z,58593.88
2024-04-08T17:19:19.916Z,58593.88
2024-04-08T17:21:46.772Z,58593.88
2024-04-08T17:24:13.686Z,58593.88
2024-04-08T17:26:41.810Z,58593.88
2024-04-08T17:29:08.540Z,58593.88
2024-04-08T17:31:35.324Z,58593.88
2024-04-08T17:34:02.169Z,58593.88
2024-04-08T17:36:29.175Z,58593.88
2024-04-08T17:38:56.008Z,58593.88
2024-04-08T17:41:25.896Z,58593.88
2024-04-08T17:43:57.185Z,58593.88
2024-04-08T17:46:24.978Z,58593.88
2024-04-08T17:48:52.096Z,58593.88
2024-04-08T17:51:19.042Z,58593.88
2024-04-08T17:53:45.924Z,58593.88
2024-04-08T17:56:17.533Z,58593.88
2024-04-08T17:58:45.563Z,58593.88
2024-04-08T18:01:15.959Z,58593.88
2024-04-08T18:03:44.636Z,58593.88
2024-04-08T18:06:12.643Z,58593.88
2024-04-08T18:08:43.639Z,58593.88
2024-04-08T18:11:13.060Z,58593.88
2024-04-08T18:13:41.026Z,58593.88
2024-04-08T18:16:16.845Z,58593.88
2024-04-08T18:18:46.918Z,58593.88
2024-04-08T18:21:13.940Z,58593.88
2024-04-08T18:23:41.202Z,58593.88
2024-04-08T18:26:16.039Z,58593.88
2024-04-08T18:28:43.738Z,58593.88
2024-04-08T18:31:14.602Z,58593.88
2024-04-08T18:33:42.664Z,58593.88
2024-04-08T18:36:10.220Z,58593.88
2024-04-08T18:38:37.482Z,58593.88
2024-04-08T18:41:08.812Z,58593.88
2024-04-08T18:43:37.270Z,58593.88
2024-04-08T18:46:07.183Z,58593.88
2024-04-08T18:48:34.341Z,58593.88
2024-04-08T18:51:01.816Z,58593.88
2024-04-08T18:53:28.727Z,58593.88
2024-04-08T18:55:55.520Z,58593.88
2024-04-08T18:58:22.264Z,58593.88
2024-04-08T19:00:49.095Z,58593.88
2024-04-08T19:03:19.037Z,58593.88
2024-04-08T19:05:49.734Z,58593.88
2024-04-08T19:08:17.293Z,58593.88
2024-04-08T19:10:44.182Z,58593.88
2024-04-08T19:13:11.181Z,58593.88
2024-04-08T19:15:38.520Z,58593.88
2024-04-08T19:18:05.900Z,58593.88
2024-04-08T19:20:32.858Z,58593.88
2024-04-08T19:22:59.693Z,58593.88
2024-04-08T19:25:26.490Z,58593.88
2024-04-08T19:27:56.814Z,58593.88
2024-04-08T19:30:23.685Z,58593.88
2024-04-08T19:32:50.944Z,58593.88
2024-04-08T19:35:17.762Z,58593.88
2024-04-08T19:37:44.759Z,58593.88
2024-04-08T19:40:13.727Z,58593.88
2024-04-08T19:42:40.573Z,58593.88
2024-04-08T19:45:09.739Z,58593.88
2024-04-08T19:47:44.577Z,58593.88
2024-04-08T19:50:12.557Z,58593.88
2024-04-08T19:52:39.714Z,58593.88
2024-04-08T19:55:07.595Z,58593.88
2024-04-08T19:57:35.683Z,58593.88
2024-04-08T20:00:10.294Z,58593.88
2024-04-08T20:02:39.018Z,58593.88
2024-04-08T20:05:06.951Z,58593.88
2024-04-08T20:07:33.804Z,58593.88
2024-04-08T20:10:00.565Z,58593.88
2024-04-08T20:12:27.690Z,58593.88
2024-04-08T20:14:54.634Z,58593.88
2024-04-08T20:17:21.523Z,58593.88
2024-04-08T20:19:48.289Z,58593.88
2024-04-08T20:22:15.086Z,58593.88
2024-04-08T20:24:41.896Z,58593.88
2024-04-08T20:27:08.870Z,58593.88
2024-04-08T20:29:35.729Z,58593.88
2024-04-08T20:32:02.525Z,58593.88
2024-04-08T20:34:29.378Z,58593.88
2024-04-08T20:36:56.662Z,58593.88
2024-04-08T20:39:23.846Z,58593.88
2024-04-08T20:41:50.784Z,58593.88
2024-04-08T20:44:17.608Z,58593.88
2024-04-08T20:46:44.375Z,58593.88
2024-04-08T20:49:11.250Z,58593.88
2024-04-08T20:51:45.306Z,58593.88
2024-04-08T20:54:15.537Z,58593.88
2024-04-08T20:56:42.622Z,58593.88
2024-04-08T20:59:09.379Z,58593.88
2024-04-08T21:01:36.248Z,58593.88
2024-04-08T21:04:03.440Z,58593.88
2024-04-08T21:06:30.383Z,58593.88
2024-04-08T21:08:57.227Z,58593.88
2024-04-08T21:11:24.902Z,58593.88
2024-04-08T21:13:51.684Z,58593.88
2024-04-08T21:16:18.414Z,58593.88
2024-04-08T21:18:45.442Z,58593.88
2024-04-08T21:21:12.357Z,58593.88
2024-04-08T21:23:40.671Z,58593.88
2024-04-08T21:26:15.529Z,58593.88
2024-04-08T21:28:43.774Z,58593.88
2024-04-08T21:31:11.963Z,58593.88
2024-04-08T21:33:40.158Z,58593.88
2024-04-08T21:36:08.552Z,58593.88
2024-04-08T21:38:35.808Z,58593.88
2024-04-08T21:41:05.336Z,58593.88
2024-04-08T21:43:32.488Z,58593.88
2024-04-08T21:46:01.748Z,58593.88
2024-04-08T21:48:28.998Z,58593.88
2024-04-08T21:50:58.824Z,58593.88
2024-04-08T21:53:29.431Z,58593.88
2024-04-08T21:56:00.224Z,58593.88
2024-04-08T21:58:27.627Z,58593.88
2024-04-08T22:00:56.572Z,58593.88
2024-04-08T22:03:25.291Z,58593.88
2024-04-08T22:05:52.292Z,58593.88
2024-04-08T22:08:19.224Z,58593.88
2024-04-08T22:10:46.143Z,58593.88
2024-04-08T22:13:13.023Z,58593.88
2024-04-08T22:15:40.452Z,58593.88
2024-04-08T22:18:08.592Z,58593.88
2024-04-08T22:20:35.576Z,58593.88
2024-04-08T22:23:07.285Z,58593.88
2024-04-08T22:25:37.685Z,58593.88
2024-04-08T22:28:05.194Z,58593.88
2024-04-08T22:30:32.273Z,58593.88
2024-04-08T22:32:59.383Z,58593.88
2024-04-08T22:35:26.333Z,58593.88
2024-04-08T22:37:54.305Z,58593.88
2024-04-08T22:40:21.754Z,58593.88
2024-04-08T22:42:52.113Z,58593.88
2024-04-08T22:45:19.041Z,58593.88
2024-04-08T22:47:47.331Z,58593.88
2024-04-08T22:50:14.876Z,58593.88
2024-04-08T22:52:41.663Z,58593.88
2024-04-08T22:55:10.874Z,58593.88
2024-04-08T22:57:44.885Z,58593.88
2024-04-08T23:00:13.529Z,58593.88
2024-04-08T23:02:40.798Z,58593.88
2024-04-08T23:05:08.391Z,58593.88
2024-04-08T23:07:35.753Z,58593.88
2024-04-08T23:10:03.125Z,58593.88
2024-04-08T23:12:29.952Z,58593.88
2024-04-08T23:14:56.710Z,58593.88
2024-04-08T23:17:23.451Z,58593.88
2024-04-08T23:19:50.606Z,58593.88
2024-04-08T23:22:17.446Z,58593.88
2024-04-08T23:24:44.180Z,58593.88
2024-04-08T23:27:14.504Z,58593.88
2024-04-08T23:29:41.427Z,58593.88
2024-04-08T23:32:08.273Z,58593.88
2024-04-08T23:34:35.380Z,58593.88
2024-04-08T23:37:02.250Z,58593.88
2024-04-08T23:39:29.108Z,58593.88
2024-04-08T23:41:56.100Z,58593.88
2024-04-08T23:44:22.946Z,58593.88
2024-04-08T23:46:49.745Z,58593.88
2024-04-08T23:49:16.618Z,58593.88
2024-04-08T23:51:43.697Z,58593.88
2024-04-08T23:54:10.840Z,58593.88
2024-04-08T23:56:37.696Z,58593.88
2024-04-08T23:59:04.419Z,58593.88
